sensor_id;sensor_type;location;lat;lon;timestamp;P1;durP1;ratioP1;P2;durP2;ratioP2
56141;SDS011;42018;48.588;10.836;2022-07-26T00:02:11;6.05;;;1.75;;
56141;SDS011;42018;48.588;10.836;2022-07-26T00:04:57;3.78;;;1.70;;
56141;SDS011;42018;48.588;10.836;2022-07-26T00:07:43;3.72;;;1.45;;
56141;SDS011;42018;48.588;10.836;2022-07-26T00:10:29;2.22;;;1.30;;
56141;SDS011;42018;48.588;10.836;2022-07-26T00:13:15;3.63;;;1.50;;
56141;SDS011;42018;48.588;10.836;2022-07-26T00:16:02;4.03;;;1.35;;
56141;SDS011;42018;48.588;10.836;2022-07-26T00:18:48;3.10;;;1.50;;
56141;SDS011;42018;48.588;10.836;2022-07-26T00:21:34;2.50;;;1.38;;
56141;SDS011;42018;48.588;10.836;2022-07-26T00:24:21;3.55;;;1.35;;
56141;SDS011;42018;48.588;10.836;2022-07-26T00:27:06;5.10;;;1.50;;
56141;SDS011;42018;48.588;10.836;2022-07-26T00:29:51;3.38;;;1.40;;
56141;SDS011;42018;48.588;10.836;2022-07-26T00:32:37;4.53;;;1.48;;
56141;SDS011;42018;48.588;10.836;2022-07-26T00:35:23;3.55;;;1.40;;
56141;SDS011;42018;48.588;10.836;2022-07-26T00:38:08;2.70;;;1.45;;
56141;SDS011;42018;48.588;10.836;2022-07-26T00:40:54;2.35;;;1.20;;
56141;SDS011;42018;48.588;10.836;2022-07-26T00:43:52;4.00;;;1.33;;
56141;SDS011;42018;48.588;10.836;2022-07-26T00:46:42;2.97;;;1.00;;
56141;SDS011;42018;48.588;10.836;2022-07-26T00:49:28;2.30;;;1.02;;
56141;SDS011;42018;48.588;10.836;2022-07-26T00:52:13;2.03;;;1.00;;
56141;SDS011;42018;48.588;10.836;2022-07-26T00:54:59;2.35;;;1.00;;
56141;SDS011;42018;48.588;10.836;2022-07-26T00:57:44;3.72;;;1.10;;
56141;SDS011;42018;48.588;10.836;2022-07-26T01:00:30;2.55;;;1.00;;
56141;SDS011;42018;48.588;10.836;2022-07-26T01:03:15;2.03;;;0.90;;
56141;SDS011;42018;48.588;10.836;2022-07-26T01:06:00;1.33;;;0.82;;
56141;SDS011;42018;48.588;10.836;2022-07-26T01:08:46;1.88;;;0.88;;
56141;SDS011;42018;48.588;10.836;2022-07-26T01:11:31;2.63;;;1.10;;
56141;SDS011;42018;48.588;10.836;2022-07-26T01:14:21;2.90;;;1.02;;
56141;SDS011;42018;48.588;10.836;2022-07-26T01:17:07;2.33;;;1.13;;
56141;SDS011;42018;48.588;10.836;2022-07-26T01:19:52;1.70;;;0.90;;
56141;SDS011;42018;48.588;10.836;2022-07-26T01:22:38;3.15;;;1.00;;
56141;SDS011;42018;48.588;10.836;2022-07-26T01:25:27;3.53;;;1.02;;
56141;SDS011;42018;48.588;10.836;2022-07-26T01:28:16;2.10;;;0.98;;
56141;SDS011;42018;48.588;10.836;2022-07-26T01:31:06;1.90;;;0.90;;
56141;SDS011;42018;48.588;10.836;2022-07-26T01:33:52;1.40;;;0.80;;
56141;SDS011;42018;48.588;10.836;2022-07-26T01:36:37;2.72;;;0.98;;
56141;SDS011;42018;48.588;10.836;2022-07-26T01:39:23;1.23;;;0.80;;
56141;SDS011;42018;48.588;10.836;2022-07-26T01:42:08;2.40;;;1.00;;
56141;SDS011;42018;48.588;10.836;2022-07-26T01:44:54;2.35;;;0.70;;
56141;SDS011;42018;48.588;10.836;2022-07-26T01:47:39;1.83;;;0.80;;
56141;SDS011;42018;48.588;10.836;2022-07-26T01:50:25;3.15;;;0.90;;
56141;SDS011;42018;48.588;10.836;2022-07-26T01:53:10;1.60;;;0.80;;
56141;SDS011;42018;48.588;10.836;2022-07-26T01:55:55;2.15;;;0.90;;
56141;SDS011;42018;48.588;10.836;2022-07-26T01:58:41;2.92;;;1.00;;
56141;SDS011;42018;48.588;10.836;2022-07-26T02:01:26;2.15;;;1.00;;
56141;SDS011;42018;48.588;10.836;2022-07-26T02:04:12;2.25;;;0.90;;
56141;SDS011;42018;48.588;10.836;2022-07-26T02:07:17;1.20;;;0.80;;
56141;SDS011;42018;48.588;10.836;2022-07-26T02:10:03;2.55;;;0.82;;
56141;SDS011;42018;48.588;10.836;2022-07-26T02:12:49;2.22;;;1.00;;
56141;SDS011;42018;48.588;10.836;2022-07-26T02:15:35;2.65;;;0.90;;
56141;SDS011;42018;48.588;10.836;2022-07-26T02:18:20;2.10;;;0.85;;
56141;SDS011;42018;48.588;10.836;2022-07-26T02:21:06;2.00;;;1.00;;
56141;SDS011;42018;48.588;10.836;2022-07-26T02:23:51;1.70;;;0.80;;
56141;SDS011;42018;48.588;10.836;2022-07-26T02:26:37;1.73;;;0.93;;
56141;SDS011;42018;48.588;10.836;2022-07-26T02:29:23;1.98;;;0.95;;
56141;SDS011;42018;48.588;10.836;2022-07-26T02:32:08;1.50;;;0.90;;
56141;SDS011;42018;48.588;10.836;2022-07-26T02:34:55;3.50;;;1.00;;
56141;SDS011;42018;48.588;10.836;2022-07-26T02:37:40;2.33;;;0.90;;
56141;SDS011;42018;48.588;10.836;2022-07-26T02:40:25;3.35;;;1.08;;
56141;SDS011;42018;48.588;10.836;2022-07-26T02:43:11;3.38;;;1.10;;
56141;SDS011;42018;48.588;10.836;2022-07-26T02:45:56;1.73;;;0.80;;
56141;SDS011;42018;48.588;10.836;2022-07-26T02:48:42;3.42;;;1.00;;
56141;SDS011;42018;48.588;10.836;2022-07-26T02:51:27;2.55;;;1.10;;
56141;SDS011;42018;48.588;10.836;2022-07-26T02:54:13;2.47;;;1.20;;
56141;SDS011;42018;48.588;10.836;2022-07-26T02:56:58;3.92;;;1.30;;
56141;SDS011;42018;48.588;10.836;2022-07-26T02:59:44;2.92;;;1.10;;
56141;SDS011;42018;48.588;10.836;2022-07-26T03:02:29;3.08;;;1.20;;
56141;SDS011;42018;48.588;10.836;2022-07-26T03:05:15;3.80;;;1.20;;
56141;SDS011;42018;48.588;10.836;2022-07-26T03:08:00;2.33;;;1.02;;
56141;SDS011;42018;48.588;10.836;2022-07-26T03:10:46;3.63;;;1.00;;
56141;SDS011;42018;48.588;10.836;2022-07-26T03:13:34;3.00;;;1.00;;
56141;SDS011;42018;48.588;10.836;2022-07-26T03:16:19;2.75;;;1.27;;
56141;SDS011;42018;48.588;10.836;2022-07-26T03:19:05;3.35;;;1.10;;
56141;SDS011;42018;48.588;10.836;2022-07-26T03:21:50;3.22;;;1.10;;
56141;SDS011;42018;48.588;10.836;2022-07-26T03:24:36;2.08;;;1.10;;
56141;SDS011;42018;48.588;10.836;2022-07-26T03:27:21;2.45;;;1.10;;
56141;SDS011;42018;48.588;10.836;2022-07-26T03:30:07;2.95;;;1.10;;
56141;SDS011;42018;48.588;10.836;2022-07-26T03:32:53;2.53;;;1.10;;
56141;SDS011;42018;48.588;10.836;2022-07-26T03:35:39;2.35;;;1.00;;
56141;SDS011;42018;48.588;10.836;2022-07-26T03:38:24;3.10;;;1.30;;
56141;SDS011;42018;48.588;10.836;2022-07-26T03:41:09;4.93;;;1.20;;
56141;SDS011;42018;48.588;10.836;2022-07-26T03:43:55;2.33;;;1.00;;
56141;SDS011;42018;48.588;10.836;2022-07-26T03:46:40;1.52;;;0.90;;
56141;SDS011;42018;48.588;10.836;2022-07-26T03:49:26;2.47;;;1.00;;
56141;SDS011;42018;48.588;10.836;2022-07-26T03:52:11;3.20;;;1.05;;
56141;SDS011;42018;48.588;10.836;2022-07-26T03:54:57;1.83;;;1.00;;
56141;SDS011;42018;48.588;10.836;2022-07-26T03:57:42;2.03;;;1.02;;
56141;SDS011;42018;48.588;10.836;2022-07-26T04:00:28;2.80;;;1.00;;
56141;SDS011;42018;48.588;10.836;2022-07-26T04:03:13;1.95;;;1.00;;
56141;SDS011;42018;48.588;10.836;2022-07-26T04:05:58;4.85;;;1.10;;
56141;SDS011;42018;48.588;10.836;2022-07-26T04:08:44;2.42;;;1.13;;
56141;SDS011;42018;48.588;10.836;2022-07-26T04:11:29;2.67;;;1.00;;
56141;SDS011;42018;48.588;10.836;2022-07-26T04:14:15;2.60;;;1.02;;
56141;SDS011;42018;48.588;10.836;2022-07-26T04:17:01;3.63;;;1.13;;
56141;SDS011;42018;48.588;10.836;2022-07-26T04:19:46;1.42;;;0.80;;
56141;SDS011;42018;48.588;10.836;2022-07-26T04:22:32;5.57;;;1.10;;
56141;SDS011;42018;48.588;10.836;2022-07-26T04:25:19;3.42;;;1.13;;
56141;SDS011;42018;48.588;10.836;2022-07-26T04:28:04;1.55;;;0.98;;
56141;SDS011;42018;48.588;10.836;2022-07-26T04:30:49;2.75;;;1.00;;
56141;SDS011;42018;48.588;10.836;2022-07-26T04:33:35;3.35;;;1.10;;
56141;SDS011;42018;48.588;10.836;2022-07-26T04:36:20;2.35;;;0.90;;
56141;SDS011;42018;48.588;10.836;2022-07-26T04:39:09;1.80;;;0.82;;
56141;SDS011;42018;48.588;10.836;2022-07-26T04:41:55;1.95;;;0.90;;
56141;SDS011;42018;48.588;10.836;2022-07-26T04:44:40;2.90;;;0.90;;
56141;SDS011;42018;48.588;10.836;2022-07-26T04:47:25;2.22;;;1.10;;
56141;SDS011;42018;48.588;10.836;2022-07-26T04:50:11;2.15;;;0.90;;
56141;SDS011;42018;48.588;10.836;2022-07-26T04:52:57;1.77;;;0.90;;
56141;SDS011;42018;48.588;10.836;2022-07-26T04:55:42;3.10;;;1.00;;
56141;SDS011;42018;48.588;10.836;2022-07-26T04:58:28;1.63;;;0.88;;
56141;SDS011;42018;48.588;10.836;2022-07-26T05:01:13;1.77;;;1.08;;
56141;SDS011;42018;48.588;10.836;2022-07-26T05:03:59;2.15;;;0.80;;
56141;SDS011;42018;48.588;10.836;2022-07-26T05:06:44;3.72;;;1.00;;
56141;SDS011;42018;48.588;10.836;2022-07-26T05:09:30;1.90;;;1.00;;
56141;SDS011;42018;48.588;10.836;2022-07-26T05:12:15;1.27;;;0.88;;
56141;SDS011;42018;48.588;10.836;2022-07-26T05:15:01;2.22;;;1.00;;
56141;SDS011;42018;48.588;10.836;2022-07-26T05:17:46;1.65;;;0.88;;
56141;SDS011;42018;48.588;10.836;2022-07-26T05:20:32;3.33;;;0.95;;
56141;SDS011;42018;48.588;10.836;2022-07-26T05:23:18;2.95;;;1.00;;
56141;SDS011;42018;48.588;10.836;2022-07-26T05:26:04;2.53;;;1.05;;
56141;SDS011;42018;48.588;10.836;2022-07-26T05:28:49;2.60;;;1.05;;
56141;SDS011;42018;48.588;10.836;2022-07-26T05:31:35;3.00;;;1.10;;
56141;SDS011;42018;48.588;10.836;2022-07-26T05:34:20;2.50;;;1.00;;
56141;SDS011;42018;48.588;10.836;2022-07-26T05:37:07;1.58;;;0.90;;
56141;SDS011;42018;48.588;10.836;2022-07-26T05:39:53;2.13;;;0.90;;
56141;SDS011;42018;48.588;10.836;2022-07-26T05:42:38;2.85;;;1.15;;
56141;SDS011;42018;48.588;10.836;2022-07-26T05:45:24;2.03;;;1.00;;
56141;SDS011;42018;48.588;10.836;2022-07-26T05:48:09;2.95;;;1.10;;
56141;SDS011;42018;48.588;10.836;2022-07-26T05:50:55;2.60;;;0.98;;
56141;SDS011;42018;48.588;10.836;2022-07-26T05:53:40;2.28;;;1.00;;
56141;SDS011;42018;48.588;10.836;2022-07-26T05:56:25;1.75;;;0.90;;
56141;SDS011;42018;48.588;10.836;2022-07-26T05:59:11;2.05;;;1.00;;
56141;SDS011;42018;48.588;10.836;2022-07-26T06:01:56;2.05;;;1.02;;
56141;SDS011;42018;48.588;10.836;2022-07-26T06:04:42;1.77;;;1.10;;
56141;SDS011;42018;48.588;10.836;2022-07-26T06:07:27;2.10;;;1.08;;
56141;SDS011;42018;48.588;10.836;2022-07-26T06:10:13;2.85;;;1.00;;
56141;SDS011;42018;48.588;10.836;2022-07-26T06:12:58;4.60;;;1.10;;
56141;SDS011;42018;48.588;10.836;2022-07-26T06:15:44;2.47;;;1.00;;
56141;SDS011;42018;48.588;10.836;2022-07-26T06:18:30;2.08;;;1.00;;
56141;SDS011;42018;48.588;10.836;2022-07-26T06:21:15;3.60;;;1.15;;
56141;SDS011;42018;48.588;10.836;2022-07-26T06:24:01;2.10;;;1.10;;
56141;SDS011;42018;48.588;10.836;2022-07-26T06:26:46;4.05;;;0.98;;
56141;SDS011;42018;48.588;10.836;2022-07-26T06:29:34;1.83;;;1.10;;
56141;SDS011;42018;48.588;10.836;2022-07-26T06:32:19;2.03;;;1.00;;
56141;SDS011;42018;48.588;10.836;2022-07-26T06:35:04;3.33;;;1.20;;
56141;SDS011;42018;48.588;10.836;2022-07-26T06:37:50;2.15;;;0.95;;
56141;SDS011;42018;48.588;10.836;2022-07-26T06:40:35;1.70;;;0.90;;
56141;SDS011;42018;48.588;10.836;2022-07-26T06:43:21;2.10;;;0.90;;
56141;SDS011;42018;48.588;10.836;2022-07-26T06:46:06;2.40;;;0.98;;
56141;SDS011;42018;48.588;10.836;2022-07-26T06:48:52;1.52;;;0.82;;
56141;SDS011;42018;48.588;10.836;2022-07-26T06:51:39;2.13;;;0.95;;
56141;SDS011;42018;48.588;10.836;2022-07-26T06:54:24;2.33;;;1.00;;
56141;SDS011;42018;48.588;10.836;2022-07-26T06:57:09;1.10;;;0.70;;
56141;SDS011;42018;48.588;10.836;2022-07-26T06:59:55;2.83;;;1.08;;
56141;SDS011;42018;48.588;10.836;2022-07-26T07:02:40;3.50;;;1.10;;
56141;SDS011;42018;48.588;10.836;2022-07-26T07:05:25;1.90;;;0.82;;
56141;SDS011;42018;48.588;10.836;2022-07-26T07:08:11;1.25;;;0.82;;
56141;SDS011;42018;48.588;10.836;2022-07-26T07:10:56;3.03;;;1.10;;
56141;SDS011;42018;48.588;10.836;2022-07-26T07:13:42;1.55;;;0.90;;
56141;SDS011;42018;48.588;10.836;2022-07-26T07:16:27;2.53;;;0.93;;
56141;SDS011;42018;48.588;10.836;2022-07-26T07:19:13;3.55;;;1.20;;
56141;SDS011;42018;48.588;10.836;2022-07-26T07:21:58;2.03;;;0.90;;
56141;SDS011;42018;48.588;10.836;2022-07-26T07:24:43;2.00;;;0.90;;
56141;SDS011;42018;48.588;10.836;2022-07-26T07:27:29;1.65;;;0.85;;
56141;SDS011;42018;48.588;10.836;2022-07-26T07:30:14;1.25;;;0.80;;
56141;SDS011;42018;48.588;10.836;2022-07-26T07:33:01;2.45;;;0.90;;
56141;SDS011;42018;48.588;10.836;2022-07-26T07:35:46;2.88;;;0.90;;
56141;SDS011;42018;48.588;10.836;2022-07-26T07:38:31;2.45;;;0.95;;
56141;SDS011;42018;48.588;10.836;2022-07-26T07:41:17;1.98;;;0.80;;
56141;SDS011;42018;48.588;10.836;2022-07-26T07:44:03;3.72;;;1.00;;
56141;SDS011;42018;48.588;10.836;2022-07-26T07:46:55;2.83;;;0.90;;
56141;SDS011;42018;48.588;10.836;2022-07-26T07:49:40;2.20;;;0.85;;
56141;SDS011;42018;48.588;10.836;2022-07-26T07:52:26;1.58;;;0.90;;
56141;SDS011;42018;48.588;10.836;2022-07-26T07:55:11;2.08;;;0.73;;
56141;SDS011;42018;48.588;10.836;2022-07-26T07:57:59;3.03;;;1.00;;
56141;SDS011;42018;48.588;10.836;2022-07-26T08:00:44;2.78;;;0.90;;
56141;SDS011;42018;48.588;10.836;2022-07-26T08:03:31;2.85;;;1.00;;
56141;SDS011;42018;48.588;10.836;2022-07-26T08:06:16;1.92;;;1.00;;
56141;SDS011;42018;48.588;10.836;2022-07-26T08:09:02;2.33;;;0.90;;
56141;SDS011;42018;48.588;10.836;2022-07-26T08:11:48;1.85;;;0.95;;
56141;SDS011;42018;48.588;10.836;2022-07-26T08:14:33;3.72;;;1.00;;
56141;SDS011;42018;48.588;10.836;2022-07-26T08:17:19;2.58;;;1.00;;
56141;SDS011;42018;48.588;10.836;2022-07-26T08:20:05;3.28;;;0.90;;
56141;SDS011;42018;48.588;10.836;2022-07-26T08:22:51;2.33;;;0.77;;
56141;SDS011;42018;48.588;10.836;2022-07-26T08:25:39;1.73;;;0.90;;
56141;SDS011;42018;48.588;10.836;2022-07-26T08:28:25;3.75;;;1.10;;
56141;SDS011;42018;48.588;10.836;2022-07-26T08:31:11;4.47;;;1.00;;
56141;SDS011;42018;48.588;10.836;2022-07-26T08:33:56;2.35;;;1.00;;
56141;SDS011;42018;48.588;10.836;2022-07-26T08:36:42;2.58;;;1.02;;
56141;SDS011;42018;48.588;10.836;2022-07-26T08:39:28;1.65;;;0.90;;
56141;SDS011;42018;48.588;10.836;2022-07-26T08:42:16;2.70;;;1.00;;
56141;SDS011;42018;48.588;10.836;2022-07-26T08:45:03;2.85;;;1.00;;
56141;SDS011;42018;48.588;10.836;2022-07-26T08:47:48;1.83;;;0.90;;
56141;SDS011;42018;48.588;10.836;2022-07-26T08:50:34;0.88;;;0.70;;
56141;SDS011;42018;48.588;10.836;2022-07-26T08:53:20;2.17;;;0.90;;
56141;SDS011;42018;48.588;10.836;2022-07-26T08:56:06;3.22;;;1.00;;
56141;SDS011;42018;48.588;10.836;2022-07-26T08:58:51;1.67;;;0.88;;
56141;SDS011;42018;48.588;10.836;2022-07-26T09:01:59;1.55;;;0.80;;
56141;SDS011;42018;48.588;10.836;2022-07-26T09:07:32;2.30;;;1.00;;
56141;SDS011;42018;48.588;10.836;2022-07-26T09:10:18;2.85;;;0.90;;
56141;SDS011;42018;48.588;10.836;2022-07-26T09:13:04;3.50;;;0.95;;
56141;SDS011;42018;48.588;10.836;2022-07-26T09:16:06;1.70;;;0.90;;
56141;SDS011;42018;48.588;10.836;2022-07-26T09:18:53;2.35;;;0.90;;
56141;SDS011;42018;48.588;10.836;2022-07-26T09:21:39;2.08;;;1.00;;
56141;SDS011;42018;48.588;10.836;2022-07-26T09:24:29;3.83;;;0.95;;
56141;SDS011;42018;48.588;10.836;2022-07-26T09:27:18;3.67;;;0.93;;
56141;SDS011;42018;48.588;10.836;2022-07-26T09:30:07;3.42;;;1.10;;
56141;SDS011;42018;48.588;10.836;2022-07-26T09:33:05;3.15;;;1.02;;
56141;SDS011;42018;48.588;10.836;2022-07-26T09:36:04;1.63;;;0.90;;
56141;SDS011;42018;48.588;10.836;2022-07-26T09:38:51;2.45;;;1.00;;
56141;SDS011;42018;48.588;10.836;2022-07-26T09:41:42;1.92;;;0.90;;
56141;SDS011;42018;48.588;10.836;2022-07-26T09:44:28;3.65;;;0.98;;
56141;SDS011;42018;48.588;10.836;2022-07-26T09:47:14;3.53;;;0.88;;
56141;SDS011;42018;48.588;10.836;2022-07-26T09:50:09;1.40;;;0.73;;
56141;SDS011;42018;48.588;10.836;2022-07-26T09:55:53;3.15;;;0.85;;
56141;SDS011;42018;48.588;10.836;2022-07-26T09:58:40;2.90;;;0.88;;
56141;SDS011;42018;48.588;10.836;2022-07-26T10:01:26;2.05;;;1.00;;
56141;SDS011;42018;48.588;10.836;2022-07-26T10:04:12;2.28;;;0.95;;
56141;SDS011;42018;48.588;10.836;2022-07-26T10:06:57;2.42;;;0.80;;
56141;SDS011;42018;48.588;10.836;2022-07-26T10:09:56;2.53;;;0.90;;
56141;SDS011;42018;48.588;10.836;2022-07-26T10:12:45;1.52;;;0.70;;
56141;SDS011;42018;48.588;10.836;2022-07-26T10:21:22;2.13;;;0.88;;
56141;SDS011;42018;48.588;10.836;2022-07-26T10:24:22;1.23;;;0.68;;
56141;SDS011;42018;48.588;10.836;2022-07-26T10:27:34;1.00;;;0.80;;
56141;SDS011;42018;48.588;10.836;2022-07-26T10:30:22;2.08;;;0.90;;
56141;SDS011;42018;48.588;10.836;2022-07-26T10:33:12;1.88;;;0.80;;
56141;SDS011;42018;48.588;10.836;2022-07-26T10:35:59;1.77;;;0.80;;
56141;SDS011;42018;48.588;10.836;2022-07-26T10:41:55;1.73;;;0.77;;
56141;SDS011;42018;48.588;10.836;2022-07-26T10:44:43;1.63;;;0.80;;
56141;SDS011;42018;48.588;10.836;2022-07-26T10:47:29;1.60;;;0.88;;
56141;SDS011;42018;48.588;10.836;2022-07-26T10:50:14;2.28;;;0.82;;
56141;SDS011;42018;48.588;10.836;2022-07-26T10:53:23;2.40;;;0.80;;
56141;SDS011;42018;48.588;10.836;2022-07-26T10:56:11;1.95;;;1.00;;
56141;SDS011;42018;48.588;10.836;2022-07-26T10:58:56;2.55;;;0.95;;
56141;SDS011;42018;48.588;10.836;2022-07-26T11:01:42;1.40;;;0.70;;
56141;SDS011;42018;48.588;10.836;2022-07-26T11:04:29;1.80;;;0.70;;
56141;SDS011;42018;48.588;10.836;2022-07-26T11:07:14;0.95;;;0.77;;
56141;SDS011;42018;48.588;10.836;2022-07-26T11:10:00;2.55;;;0.90;;
56141;SDS011;42018;48.588;10.836;2022-07-26T11:12:45;1.50;;;0.77;;
56141;SDS011;42018;48.588;10.836;2022-07-26T11:15:31;1.92;;;0.70;;
56141;SDS011;42018;48.588;10.836;2022-07-26T11:18:18;3.25;;;1.00;;
56141;SDS011;42018;48.588;10.836;2022-07-26T11:21:07;1.70;;;0.80;;
56141;SDS011;42018;48.588;10.836;2022-07-26T11:24:02;0.95;;;0.57;;
56141;SDS011;42018;48.588;10.836;2022-07-26T11:26:48;2.92;;;0.90;;
56141;SDS011;42018;48.588;10.836;2022-07-26T11:29:34;3.80;;;0.80;;
56141;SDS011;42018;48.588;10.836;2022-07-26T11:32:22;1.75;;;0.80;;
56141;SDS011;42018;48.588;10.836;2022-07-26T11:35:09;1.80;;;0.80;;
56141;SDS011;42018;48.588;10.836;2022-07-26T11:37:54;2.22;;;0.90;;
56141;SDS011;42018;48.588;10.836;2022-07-26T11:40:45;1.38;;;0.73;;
56141;SDS011;42018;48.588;10.836;2022-07-26T11:43:36;2.80;;;1.00;;
56141;SDS011;42018;48.588;10.836;2022-07-26T11:46:31;2.00;;;0.75;;
56141;SDS011;42018;48.588;10.836;2022-07-26T11:49:20;1.85;;;0.90;;
56141;SDS011;42018;48.588;10.836;2022-07-26T11:52:10;1.98;;;0.70;;
56141;SDS011;42018;48.588;10.836;2022-07-26T11:54:56;1.50;;;0.77;;
56141;SDS011;42018;48.588;10.836;2022-07-26T11:57:41;1.40;;;0.70;;
56141;SDS011;42018;48.588;10.836;2022-07-26T12:00:27;1.52;;;0.70;;
56141;SDS011;42018;48.588;10.836;2022-07-26T12:03:12;3.45;;;0.70;;
56141;SDS011;42018;48.588;10.836;2022-07-26T12:06:02;1.70;;;0.77;;
56141;SDS011;42018;48.588;10.836;2022-07-26T12:08:50;3.70;;;0.75;;
56141;SDS011;42018;48.588;10.836;2022-07-26T12:11:37;2.03;;;0.80;;
56141;SDS011;42018;48.588;10.836;2022-07-26T12:17:15;1.40;;;0.70;;
56141;SDS011;42018;48.588;10.836;2022-07-26T12:20:12;1.33;;;0.73;;
56141;SDS011;42018;48.588;10.836;2022-07-26T12:22:59;1.02;;;0.50;;
56141;SDS011;42018;48.588;10.836;2022-07-26T12:25:48;1.80;;;0.82;;
56141;SDS011;42018;48.588;10.836;2022-07-26T12:28:40;2.60;;;0.77;;
56141;SDS011;42018;48.588;10.836;2022-07-26T12:34:18;1.85;;;0.73;;
56141;SDS011;42018;48.588;10.836;2022-07-26T12:37:08;2.55;;;0.82;;
56141;SDS011;42018;48.588;10.836;2022-07-26T12:45:36;0.73;;;0.50;;
56141;SDS011;42018;48.588;10.836;2022-07-26T12:48:24;1.88;;;0.70;;
56141;SDS011;42018;48.588;10.836;2022-07-26T12:51:10;1.35;;;0.60;;
56141;SDS011;42018;48.588;10.836;2022-07-26T12:53:55;1.45;;;0.73;;
56141;SDS011;42018;48.588;10.836;2022-07-26T12:56:43;4.38;;;0.82;;
56141;SDS011;42018;48.588;10.836;2022-07-26T12:59:30;2.00;;;0.70;;
56141;SDS011;42018;48.588;10.836;2022-07-26T13:02:16;1.65;;;0.80;;
56141;SDS011;42018;48.588;10.836;2022-07-26T13:05:02;1.85;;;0.63;;
56141;SDS011;42018;48.588;10.836;2022-07-26T13:07:56;1.50;;;0.80;;
56141;SDS011;42018;48.588;10.836;2022-07-26T13:10:41;3.55;;;0.70;;
56141;SDS011;42018;48.588;10.836;2022-07-26T13:13:29;1.83;;;0.70;;
56141;SDS011;42018;48.588;10.836;2022-07-26T13:16:14;2.13;;;0.60;;
56141;SDS011;42018;48.588;10.836;2022-07-26T13:19:00;5.05;;;1.10;;
56141;SDS011;42018;48.588;10.836;2022-07-26T13:21:45;7.25;;;1.42;;
56141;SDS011;42018;48.588;10.836;2022-07-26T13:24:31;2.30;;;1.08;;
56141;SDS011;42018;48.588;10.836;2022-07-26T13:27:19;2.47;;;0.77;;
56141;SDS011;42018;48.588;10.836;2022-07-26T13:30:05;1.83;;;0.80;;
56141;SDS011;42018;48.588;10.836;2022-07-26T13:32:51;2.63;;;0.70;;
56141;SDS011;42018;48.588;10.836;2022-07-26T13:35:36;2.58;;;0.68;;
56141;SDS011;42018;48.588;10.836;2022-07-26T13:38:23;1.45;;;0.45;;
56141;SDS011;42018;48.588;10.836;2022-07-26T13:41:08;3.45;;;0.80;;
56141;SDS011;42018;48.588;10.836;2022-07-26T13:43:54;3.15;;;0.68;;
56141;SDS011;42018;48.588;10.836;2022-07-26T13:46:39;1.55;;;0.60;;
56141;SDS011;42018;48.588;10.836;2022-07-26T13:49:25;1.58;;;0.65;;
56141;SDS011;42018;48.588;10.836;2022-07-26T13:52:10;0.93;;;0.50;;
56141;SDS011;42018;48.588;10.836;2022-07-26T13:54:56;2.67;;;0.90;;
56141;SDS011;42018;48.588;10.836;2022-07-26T13:57:41;1.45;;;0.55;;
56141;SDS011;42018;48.588;10.836;2022-07-26T14:00:27;2.00;;;0.73;;
56141;SDS011;42018;48.588;10.836;2022-07-26T14:03:13;2.90;;;0.73;;
56141;SDS011;42018;48.588;10.836;2022-07-26T14:05:58;0.98;;;0.60;;
56141;SDS011;42018;48.588;10.836;2022-07-26T14:08:44;1.20;;;0.50;;
56141;SDS011;42018;48.588;10.836;2022-07-26T14:11:29;1.95;;;0.70;;
56141;SDS011;42018;48.588;10.836;2022-07-26T14:14:16;3.83;;;0.85;;
56141;SDS011;42018;48.588;10.836;2022-07-26T14:17:01;1.75;;;0.68;;
56141;SDS011;42018;48.588;10.836;2022-07-26T14:19:47;1.65;;;0.70;;
56141;SDS011;42018;48.588;10.836;2022-07-26T14:22:32;1.63;;;0.63;;
56141;SDS011;42018;48.588;10.836;2022-07-26T14:25:18;1.58;;;0.60;;
56141;SDS011;42018;48.588;10.836;2022-07-26T14:28:04;1.58;;;0.60;;
56141;SDS011;42018;48.588;10.836;2022-07-26T14:30:50;1.38;;;0.60;;
56141;SDS011;42018;48.588;10.836;2022-07-26T14:33:35;3.03;;;0.80;;
56141;SDS011;42018;48.588;10.836;2022-07-26T14:36:21;1.67;;;0.60;;
56141;SDS011;42018;48.588;10.836;2022-07-26T14:39:06;2.50;;;0.80;;
56141;SDS011;42018;48.588;10.836;2022-07-26T14:41:51;2.03;;;0.73;;
56141;SDS011;42018;48.588;10.836;2022-07-26T14:44:37;1.02;;;0.40;;
56141;SDS011;42018;48.588;10.836;2022-07-26T14:47:22;1.33;;;0.52;;
56141;SDS011;42018;48.588;10.836;2022-07-26T14:50:08;2.33;;;0.73;;
56141;SDS011;42018;48.588;10.836;2022-07-26T14:52:55;1.20;;;0.47;;
56141;SDS011;42018;48.588;10.836;2022-07-26T14:55:40;2.17;;;0.63;;
56141;SDS011;42018;48.588;10.836;2022-07-26T14:58:26;2.03;;;0.50;;
56141;SDS011;42018;48.588;10.836;2022-07-26T15:01:11;2.47;;;0.70;;
56141;SDS011;42018;48.588;10.836;2022-07-26T15:03:57;1.13;;;0.60;;
56141;SDS011;42018;48.588;10.836;2022-07-26T15:06:42;3.38;;;0.60;;
56141;SDS011;42018;48.588;10.836;2022-07-26T15:09:28;2.05;;;0.50;;
56141;SDS011;42018;48.588;10.836;2022-07-26T15:12:13;1.55;;;0.63;;
56141;SDS011;42018;48.588;10.836;2022-07-26T15:14:59;2.45;;;0.60;;
56141;SDS011;42018;48.588;10.836;2022-07-26T15:17:44;1.40;;;0.52;;
56141;SDS011;42018;48.588;10.836;2022-07-26T15:20:29;1.92;;;0.50;;
56141;SDS011;42018;48.588;10.836;2022-07-26T15:23:15;2.35;;;0.80;;
56141;SDS011;42018;48.588;10.836;2022-07-26T15:26:00;1.27;;;0.50;;
56141;SDS011;42018;48.588;10.836;2022-07-26T15:28:46;1.10;;;0.50;;
56141;SDS011;42018;48.588;10.836;2022-07-26T15:31:31;0.75;;;0.50;;
56141;SDS011;42018;48.588;10.836;2022-07-26T15:34:17;1.15;;;0.52;;
56141;SDS011;42018;48.588;10.836;2022-07-26T15:37:02;1.00;;;0.60;;
56141;SDS011;42018;48.588;10.836;2022-07-26T15:39:47;0.85;;;0.55;;
56141;SDS011;42018;48.588;10.836;2022-07-26T15:42:33;2.28;;;0.60;;
56141;SDS011;42018;48.588;10.836;2022-07-26T15:45:23;1.10;;;0.50;;
56141;SDS011;42018;48.588;10.836;2022-07-26T15:48:09;2.30;;;0.77;;
56141;SDS011;42018;48.588;10.836;2022-07-26T15:50:54;1.30;;;0.60;;
56141;SDS011;42018;48.588;10.836;2022-07-26T15:53:40;0.88;;;0.55;;
56141;SDS011;42018;48.588;10.836;2022-07-26T15:56:28;1.17;;;0.50;;
56141;SDS011;42018;48.588;10.836;2022-07-26T15:59:13;1.98;;;0.52;;
56141;SDS011;42018;48.588;10.836;2022-07-26T16:01:58;1.45;;;0.60;;
56141;SDS011;42018;48.588;10.836;2022-07-26T16:04:44;1.65;;;0.68;;
56141;SDS011;42018;48.588;10.836;2022-07-26T16:07:29;1.05;;;0.47;;
56141;SDS011;42018;48.588;10.836;2022-07-26T16:10:15;0.98;;;0.55;;
56141;SDS011;42018;48.588;10.836;2022-07-26T16:13:00;2.75;;;0.65;;
56141;SDS011;42018;48.588;10.836;2022-07-26T16:15:46;1.77;;;0.57;;
56141;SDS011;42018;48.588;10.836;2022-07-26T16:18:31;2.80;;;0.80;;
56141;SDS011;42018;48.588;10.836;2022-07-26T16:21:16;1.98;;;0.60;;
56141;SDS011;42018;48.588;10.836;2022-07-26T16:24:02;1.42;;;0.60;;
56141;SDS011;42018;48.588;10.836;2022-07-26T16:26:48;1.30;;;0.57;;
56141;SDS011;42018;48.588;10.836;2022-07-26T16:29:35;2.25;;;0.60;;
56141;SDS011;42018;48.588;10.836;2022-07-26T16:32:20;1.92;;;0.60;;
56141;SDS011;42018;48.588;10.836;2022-07-26T16:35:06;1.30;;;0.50;;
56141;SDS011;42018;48.588;10.836;2022-07-26T16:37:52;3.28;;;0.70;;
56141;SDS011;42018;48.588;10.836;2022-07-26T16:40:37;0.57;;;0.40;;
56141;SDS011;42018;48.588;10.836;2022-07-26T16:43:23;1.90;;;0.70;;
56141;SDS011;42018;48.588;10.836;2022-07-26T16:46:08;1.38;;;0.57;;
56141;SDS011;42018;48.588;10.836;2022-07-26T16:48:54;1.67;;;0.52;;
56141;SDS011;42018;48.588;10.836;2022-07-26T16:51:39;0.77;;;0.30;;
56141;SDS011;42018;48.588;10.836;2022-07-26T16:54:24;0.93;;;0.50;;